sensor_id;sensor_type;location;lat;lon;timestamp;temperature;humidity
12374;DHT22;6251;51.762;8.660;2022-12-10T05:07:09;-1.40;99.90
12374;DHT22;6251;51.762;8.660;2022-12-10T05:17:10;-1.40;99.90
12374;DHT22;6251;51.762;8.660;2022-12-10T05:27:10;-1.30;99.90
12374;DHT22;6251;51.762;8.660;2022-12-10T05:37:11;-1.30;99.90
12374;DHT22;6251;51.762;8.660;2022-12-10T05:47:11;-1.20;99.90
12374;DHT22;6251;51.762;8.660;2022-12-10T05:57:12;-1.10;99.90
12374;DHT22;6251;51.762;8.660;2022-12-10T06:07:13;-1.10;99.90
12374;DHT22;6251;51.762;8.660;2022-12-10T06:17:13;-1.00;99.90
12374;DHT22;6251;51.762;8.660;2022-12-10T06:27:14;-1.10;99.90
12374;DHT22;6251;51.762;8.660;2022-12-10T06:37:14;-1.00;99.90
12374;DHT22;6251;51.762;8.660;2022-12-10T06:47:15;-1.00;99.90
12374;DHT22;6251;51.762;8.660;2022-12-10T06:57:16;-1.00;99.90
12374;DHT22;6251;51.762;8.660;2022-12-10T07:07:16;-1.00;99.90
12374;DHT22;6251;51.762;8.660;2022-12-10T07:17:17;-1.00;99.90
12374;DHT22;6251;51.762;8.660;2022-12-10T07:27:17;-0.90;99.90
12374;DHT22;6251;51.762;8.660;2022-12-10T07:37:18;-0.90;99.90
12374;DHT22;6251;51.762;8.660;2022-12-10T07:47:19;-0.80;99.90
12374;DHT22;6251;51.762;8.660;2022-12-10T07:57:20;-0.80;99.90
12374;DHT22;6251;51.762;8.660;2022-12-10T08:07:20;-0.80;99.90
12374;DHT22;6251;51.762;8.660;2022-12-10T08:17:21;-0.70;99.90
12374;DHT22;6251;51.762;8.660;2022-12-10T08:27:21;-0.70;99.90
12374;DHT22;6251;51.762;8.660;2022-12-10T08:37:22;-0.60;99.90
12374;DHT22;6251;51.762;8.660;2022-12-10T08:47:23;-0.50;99.90
12374;DHT22;6251;51.762;8.660;2022-12-10T08:57:23;-0.50;99.90
12374;DHT22;6251;51.762;8.660;2022-12-10T09:07:24;-0.30;99.90
12374;DHT22;6251;51.762;8.660;2022-12-10T09:17:25;-0.20;99.90
12374;DHT22;6251;51.762;8.660;2022-12-10T09:27:25;-0.20;99.90
12374;DHT22;6251;51.762;8.660;2022-12-10T09:37:26;-0.10;99.90
12374;DHT22;6251;51.762;8.660;2022-12-10T09:47:44;0.00;99.90
12374;DHT22;6251;51.762;8.660;2022-12-10T09:57:49;0.00;99.90
12374;DHT22;6251;51.762;8.660;2022-12-10T10:07:54;0.10;99.90
12374;DHT22;6251;51.762;8.660;2022-12-10T10:17:58;0.10;99.90
12374;DHT22;6251;51.762;8.660;2022-12-10T10:28:00;0.10;99.90
12374;DHT22;6251;51.762;8.660;2022-12-10T10:38:06;0.20;99.90
12374;DHT22;6251;51.762;8.660;2022-12-10T10:48:13;0.20;99.90
12374;DHT22;6251;51.762;8.660;2022-12-10T10:58:18;0.30;99.90
12374;DHT22;6251;51.762;8.660;2022-12-10T11:08:19;0.30;99.90
12374;DHT22;6251;51.762;8.660;2022-12-10T12:19:44;0.20;99.90
12374;DHT22;6251;51.762;8.660;2022-12-10T12:50:57;0.20;99.90
12374;DHT22;6251;51.762;8.660;2022-12-10T13:01:08;0.20;99.90
12374;DHT22;6251;51.762;8.660;2022-12-10T13:22:06;0.10;99.90
12374;DHT22;6251;51.762;8.660;2022-12-10T13:32:15;0.20;99.90
12374;DHT22;6251;51.762;8.660;2022-12-10T14:13:21;0.20;99.90
12374;DHT22;6251;51.762;8.660;2022-12-10T14:23:31;0.10;99.90
12374;DHT22;6251;51.762;8.660;2022-12-10T14:33:38;0.10;99.90
12374;DHT22;6251;51.762;8.660;2022-12-10T14:43:39;0.00;99.90
12374;DHT22;6251;51.762;8.660;2022-12-10T14:53:41;-0.10;99.90
12374;DHT22;6251;51.762;8.660;2022-12-10T15:03:45;-0.10;99.90
12374;DHT22;6251;51.762;8.660;2022-12-10T15:13:54;-0.10;99.90
12374;DHT22;6251;51.762;8.660;2022-12-10T15:34:19;-0.10;99.90
12374;DHT22;6251;51.762;8.660;2022-12-10T15:54:36;-0.20;99.90
12374;DHT22;6251;51.762;8.660;2022-12-10T16:04:37;-0.20;99.90
12374;DHT22;6251;51.762;8.660;2022-12-10T16:14:38;-0.20;99.90
12374;DHT22;6251;51.762;8.660;2022-12-10T16:24:38;-0.20;99.90
12374;DHT22;6251;51.762;8.660;2022-12-10T16:34:39;-0.10;99.90
12374;DHT22;6251;51.762;8.660;2022-12-10T16:44:40;-0.20;99.90
12374;DHT22;6251;51.762;8.660;2022-12-10T16:54:41;-0.20;99.90
12374;DHT22;6251;51.762;8.660;2022-12-10T17:04:46;-0.20;99.90
12374;DHT22;6251;51.762;8.660;2022-12-10T17:14:46;-0.20;99.90
12374;DHT22;6251;51.762;8.660;2022-12-10T17:24:47;-0.20;99.90
12374;DHT22;6251;51.762;8.660;2022-12-10T17:34:48;-0.20;99.90
12374;DHT22;6251;51.762;8.660;2022-12-10T17:44:51;-0.20;99.90
12374;DHT22;6251;51.762;8.660;2022-12-10T17:54:52;-0.20;99.90
12374;DHT22;6251;51.762;8.660;2022-12-10T18:05:34;-0.30;99.90
12374;DHT22;6251;51.762;8.660;2022-12-10T18:15:35;-0.30;99.90
12374;DHT22;6251;51.762;8.660;2022-12-10T18:25:37;-0.30;99.90
12374;DHT22;6251;51.762;8.660;2022-12-10T18:35:38;-0.30;99.90
12374;DHT22;6251;51.762;8.660;2022-12-10T18:45:40;-0.40;99.90
12374;DHT22;6251;51.762;8.660;2022-12-10T18:55:41;-0.40;99.90
12374;DHT22;6251;51.762;8.660;2022-12-10T19:05:41;-0.40;99.90
12374;DHT22;6251;51.762;8.660;2022-12-10T19:15:42;-0.50;99.90
12374;DHT22;6251;51.762;8.660;2022-12-10T19:25:42;-0.50;99.90
12374;DHT22;6251;51.762;8.660;2022-12-10T19:35:44;-0.40;99.90
12374;DHT22;6251;51.762;8.660;2022-12-10T19:45:45;-0.40;99.90
12374;DHT22;6251;51.762;8.660;2022-12-10T19:55:46;-0.40;99.90
12374;DHT22;6251;51.762;8.660;2022-12-10T20:05:46;-0.60;99.90
12374;DHT22;6251;51.762;8.660;2022-12-10T20:15:54;-0.70;99.90
12374;DHT22;6251;51.762;8.660;2022-12-10T20:25:58;-0.60;99.90
12374;DHT22;6251;51.762;8.660;2022-12-10T20:36:25;-0.60;99.90
12374;DHT22;6251;51.762;8.660;2022-12-10T20:46:33;-0.60;99.90
12374;DHT22;6251;51.762;8.660;2022-12-10T20:56:34;-0.50;99.90
12374;DHT22;6251;51.762;8.660;2022-12-10T21:06:38;-0.50;99.90
12374;DHT22;6251;51.762;8.660;2022-12-10T21:16:39;-0.50;99.90
12374;DHT22;6251;51.762;8.660;2022-12-10T21:26:40;-0.50;99.90
12374;DHT22;6251;51.762;8.660;2022-12-10T21:36:40;-0.50;99.90
12374;DHT22;6251;51.762;8.660;2022-12-10T21:46:41;-0.40;99.90
12374;DHT22;6251;51.762;8.660;2022-12-10T21:56:42;-0.50;99.90
12374;DHT22;6251;51.762;8.660;2022-12-10T22:06:42;-0.50;99.90
